createdAt,value
2018-06-05T00:04:25.206Z,10.15
2018-06-05T00:09:54.504Z,9.08
2018-06-05T00:15:23.766Z,8.68
2018-06-05T00:20:53.121Z,9.08
2018-06-05T00:26:23.168Z,9.25
2018-06-05T00:31:52.372Z,8.95
2018-06-05T00:37:21.633Z,8.83
2018-06-05T00:42:50.803Z,8.13
2018-06-05T00:48:20.033Z,6.53
2018-06-05T00:53:49.249Z,6.22
2018-06-05T00:59:18.515Z,6.80
2018-06-05T01:04:47.686Z,6.05
2018-06-05T01:10:17.039Z,5.28
2018-06-05T01:15:46.450Z,5.45
2018-06-05T01:21:15.812Z,5.55
2018-06-05T01:26:45.124Z,5.53
2018-06-05T01:32:14.467Z,5.00
2018-06-05T01:37:43.832Z,5.37
2018-06-05T01:43:13.783Z,4.90
2018-06-05T01:48:43.099Z,5.75
2018-06-05T01:54:12.977Z,5.25
2018-06-05T01:59:42.383Z,4.97
2018-06-05T02:05:11.670Z,4.67
2018-06-05T02:10:41.037Z,5.78
2018-06-05T02:16:10.427Z,4.83
2018-06-05T02:21:39.654Z,5.08
2018-06-05T02:27:08.868Z,5.33
2018-06-05T02:32:38.127Z,4.75
2018-06-05T02:38:07.415Z,5.53
2018-06-05T02:43:36.608Z,5.35
2018-06-05T02:49:05.968Z,5.20
2018-06-05T02:54:35.151Z,5.20
2018-06-05T03:00:04.560Z,6.30
2018-06-05T03:05:33.766Z,5.80
2018-06-05T03:11:02.962Z,5.92
2018-06-05T03:16:32.175Z,6.33
2018-06-05T03:22:01.417Z,6.95
2018-06-05T03:27:30.692Z,7.08
2018-06-05T03:32:59.896Z,6.72
2018-06-05T03:38:29.174Z,6.17
2018-06-05T03:43:58.392Z,5.58
2018-06-05T03:49:27.583Z,6.25
2018-06-05T03:54:56.746Z,5.87
2018-06-05T04:00:26.009Z,5.55
2018-06-05T04:05:55.177Z,5.25
2018-06-05T04:11:24.400Z,4.90
2018-06-05T04:16:53.611Z,5.85
2018-06-05T04:22:22.837Z,5.83
2018-06-05T04:27:52.039Z,5.10
2018-06-05T04:33:22.309Z,4.83
2018-06-05T04:38:52.606Z,5.58
2018-06-05T04:44:23.020Z,4.72
2018-06-05T04:49:52.323Z,3.90
2018-06-05T04:55:22.233Z,5.28
2018-06-05T05:00:51.444Z,4.03
2018-06-05T05:06:20.647Z,4.53
2018-06-05T05:11:50.040Z,4.20
2018-06-05T05:17:19.242Z,4.10
2018-06-05T05:22:48.451Z,4.37
2018-06-05T05:28:18.564Z,4.15
2018-06-05T05:33:49.107Z,4.33
2018-06-05T05:39:18.325Z,5.08
2018-06-05T05:44:47.575Z,4.62
2018-06-05T05:50:16.847Z,5.40
2018-06-05T05:55:46.204Z,5.50
2018-06-05T06:01:15.662Z,4.90
2018-06-05T06:06:44.883Z,4.78
2018-06-05T06:12:14.224Z,4.92
2018-06-05T06:17:43.585Z,5.50
2018-06-05T06:23:12.876Z,4.45
2018-06-05T06:28:42.307Z,4.62
2018-06-05T06:34:11.717Z,4.87
2018-06-05T06:39:40.989Z,6.17
2018-06-05T06:45:10.570Z,5.50
2018-06-05T06:50:39.836Z,5.28
2018-06-05T06:56:09.059Z,6.37
2018-06-05T07:01:38.608Z,5.17
2018-06-05T07:07:07.799Z,4.92
2018-06-05T07:12:36.995Z,6.08
2018-06-05T07:18:06.209Z,6.90
2018-06-05T07:23:35.469Z,7.22
2018-06-05T07:29:05.753Z,5.70
2018-06-05T07:34:34.903Z,5.62
2018-06-05T07:40:04.129Z,5.00
2018-06-05T07:45:33.318Z,5.20
2018-06-05T07:51:02.504Z,4.78
2018-06-05T07:56:31.708Z,6.92
2018-06-05T08:02:00.928Z,6.22
2018-06-05T08:07:30.181Z,20.00
2018-06-05T08:12:59.392Z,5.65
2018-06-05T08:18:28.665Z,4.60
2018-06-05T08:23:57.809Z,5.35
2018-06-05T08:29:26.976Z,5.90
2018-06-05T08:34:56.305Z,5.85
2018-06-05T08:40:25.527Z,5.72
2018-06-05T08:45:54.712Z,7.17
2018-06-05T08:51:23.928Z,6.53
2018-06-05T08:56:53.091Z,6.67
2018-06-05T09:02:22.293Z,6.00
2018-06-05T09:07:51.525Z,7.87
2018-06-05T09:13:20.737Z,7.03
2018-06-05T09:18:49.956Z,7.25
2018-06-05T09:24:19.177Z,8.28
2018-06-05T09:29:48.334Z,9.13
2018-06-05T09:35:17.592Z,8.53
2018-06-05T09:40:46.850Z,6.67
2018-06-05T09:46:16.133Z,7.85
2018-06-05T09:51:45.417Z,8.05
2018-06-05T09:57:14.701Z,8.08
2018-06-05T10:02:44.023Z,9.03
2018-06-05T10:08:13.265Z,6.35
2018-06-05T10:13:42.592Z,6.47
2018-06-05T10:19:11.891Z,6.60
2018-06-05T10:24:41.153Z,6.67
2018-06-05T10:30:10.168Z,7.17
2018-06-05T10:35:39.508Z,6.37
2018-06-05T10:41:08.731Z,6.75
2018-06-05T10:46:38.074Z,5.58
2018-06-05T10:52:07.501Z,5.55
2018-06-05T10:57:36.751Z,6.10
2018-06-05T11:03:05.977Z,5.78
2018-06-05T11:08:35.182Z,5.60
2018-06-05T11:14:04.407Z,5.15
2018-06-05T11:19:33.586Z,5.67
2018-06-05T11:25:02.800Z,5.78
2018-06-05T11:30:31.993Z,4.78
2018-06-05T11:36:01.175Z,5.12
2018-06-05T11:41:30.372Z,4.78
2018-06-05T11:46:59.765Z,4.33
2018-06-05T11:52:28.886Z,4.33
2018-06-05T11:57:58.083Z,4.47
2018-06-05T12:03:27.325Z,3.90
2018-06-05T12:08:56.535Z,4.92
2018-06-05T12:14:25.817Z,4.95
2018-06-05T12:19:55.043Z,4.03
2018-06-05T12:25:24.288Z,3.98
2018-06-05T12:30:53.524Z,4.80
2018-06-05T12:36:22.735Z,5.20
2018-06-05T12:41:51.966Z,5.00
2018-06-05T12:47:21.282Z,4.87
2018-06-05T12:52:50.619Z,4.45
2018-06-05T12:58:19.884Z,4.50
2018-06-05T13:03:49.128Z,3.83
2018-06-05T13:09:19.262Z,4.70
2018-06-05T13:14:54.432Z,5.15
2018-06-05T13:20:23.608Z,5.53
2018-06-05T13:25:52.840Z,5.37
2018-06-05T13:31:22.085Z,4.60
2018-06-05T13:36:51.303Z,4.97
2018-06-05T13:42:20.519Z,4.65
2018-06-05T13:47:49.786Z,4.95
2018-06-05T13:53:18.987Z,4.85
2018-06-05T13:58:48.274Z,5.03
2018-06-05T14:04:17.563Z,4.60
2018-06-05T14:09:46.780Z,4.90
2018-06-05T14:15:16.067Z,5.22
2018-06-05T14:20:45.728Z,5.75
2018-06-05T14:26:14.960Z,5.65
2018-06-05T14:31:44.392Z,5.53
2018-06-05T14:37:13.853Z,5.55
2018-06-05T14:42:43.192Z,4.72
2018-06-05T14:48:12.692Z,5.65
2018-06-05T14:53:42.157Z,5.83
2018-06-05T14:59:11.741Z,5.33
2018-06-05T15:04:41.182Z,5.40
2018-06-05T15:10:10.691Z,4.75
2018-06-05T15:15:40.382Z,5.72
2018-06-05T15:21:09.704Z,5.80
2018-06-05T15:26:38.906Z,4.83
2018-06-05T15:32:08.231Z,5.15
2018-06-05T15:37:38.574Z,5.08
2018-06-05T15:43:07.850Z,5.55
2018-06-05T15:48:37.116Z,5.33
2018-06-05T15:54:06.664Z,5.40
2018-06-05T15:59:36.002Z,5.15
2018-06-05T16:05:06.238Z,5.53
2018-06-05T16:10:35.417Z,5.12
2018-06-05T16:16:04.620Z,5.00
2018-06-05T16:21:33.884Z,5.10
2018-06-05T16:27:03.143Z,5.72
2018-06-05T16:32:32.401Z,4.80
2018-06-05T16:38:02.323Z,4.85
2018-06-05T16:43:31.628Z,5.05
2018-06-05T16:49:02.200Z,4.75
2018-06-05T16:54:31.500Z,4.50
2018-06-05T17:00:00.795Z,4.33
2018-06-05T17:05:33.746Z,5.33
2018-06-05T17:11:06.650Z,4.35
2018-06-05T17:16:35.934Z,4.35
2018-06-05T17:22:05.249Z,4.90
2018-06-05T17:27:34.698Z,4.45
2018-06-05T17:33:10.072Z,4.80
2018-06-05T17:38:40.080Z,4.35
2018-06-05T17:44:09.774Z,4.33
2018-06-05T17:49:39.743Z,4.58
2018-06-05T17:55:09.314Z,5.10
2018-06-05T18:00:38.664Z,5.00
2018-06-05T18:06:07.905Z,4.95
2018-06-05T18:11:37.368Z,4.90
2018-06-05T18:17:06.905Z,4.80
2018-06-05T18:22:36.123Z,4.85
2018-06-05T18:28:05.335Z,6.17
2018-06-05T18:33:34.588Z,5.30
2018-06-05T18:39:04.973Z,6.45
2018-06-05T18:44:34.512Z,6.60
2018-06-05T18:50:05.805Z,5.60
2018-06-05T18:55:35.120Z,5.90
2018-06-05T19:01:04.456Z,6.00
2018-06-05T19:06:33.749Z,5.95
2018-06-05T19:12:02.979Z,6.45
2018-06-05T19:17:32.235Z,6.72
2018-06-05T19:23:01.488Z,6.95
2018-06-05T19:28:30.764Z,6.30
2018-06-05T19:33:59.991Z,6.90
2018-06-05T19:39:29.250Z,6.33
2018-06-05T19:44:58.528Z,7.40
2018-06-05T19:50:27.777Z,6.78
2018-06-05T19:55:57.105Z,7.47
2018-06-05T20:01:26.343Z,7.10
2018-06-05T20:06:55.683Z,7.10
2018-06-05T20:12:25.051Z,7.12
2018-06-05T20:17:54.278Z,8.63
2018-06-05T20:23:23.496Z,7.37
2018-06-05T20:28:52.756Z,7.60
2018-06-05T20:34:22.238Z,7.60
2018-06-05T20:39:51.500Z,9.20
2018-06-05T20:45:21.202Z,7.80
2018-06-05T20:50:50.424Z,7.92
2018-06-05T20:56:19.609Z,8.40
2018-06-05T21:01:48.893Z,7.40
2018-06-05T21:07:18.096Z,8.05
2018-06-05T21:12:47.367Z,8.45
2018-06-05T21:18:16.701Z,8.70
2018-06-05T21:23:46.082Z,10.72
2018-06-05T21:29:15.463Z,7.87
2018-06-05T21:34:45.391Z,7.65
2018-06-05T21:40:14.767Z,7.47
2018-06-05T21:45:44.121Z,8.40
2018-06-05T21:51:13.513Z,9.10
2018-06-05T21:56:43.810Z,7.45
2018-06-05T22:02:13.203Z,7.95
2018-06-05T22:07:42.595Z,8.15
2018-06-05T22:13:11.931Z,9.00
2018-06-05T22:18:41.586Z,8.00
2018-06-05T22:24:11.457Z,8.13
2018-06-05T22:29:40.900Z,8.28
2018-06-05T22:35:10.371Z,8.23
2018-06-05T22:40:39.604Z,10.28
2018-06-05T22:46:08.900Z,10.68
2018-06-05T22:51:38.167Z,9.43
2018-06-05T22:57:07.504Z,11.03
2018-06-05T23:02:36.719Z,10.75
2018-06-05T23:08:06.115Z,10.75
2018-06-05T23:13:35.345Z,11.53
2018-06-05T23:19:04.491Z,10.95
2018-06-05T23:24:33.712Z,12.05
2018-06-05T23:30:02.941Z,11.33
2018-06-05T23:35:32.395Z,12.05
2018-06-05T23:41:01.672Z,12.00
2018-06-05T23:46:30.897Z,11.88
2018-06-05T23:52:00.122Z,11.48
2018-06-05T23:57:29.316Z,11.50
